Magnolia, Maryland
Current Conditions -  °F | °C
As of 6:45 PM on Saturday 25 Oct 2014 (Local Time) from KMTN Reporting Station
Clear Clear  
Wind Chill: 64°   Ceiling: Unl
Heat Index: 64°   Visibility: 10mi
Dew Point: 48°   Wind: 0mph
Humidity: 56%   Direction: NA
Pressure: 29.73"   Gusts: NA
Location:  39.4047°N, 76.3248°W
Report Text: KMTN 252245Z 00000KT 10SM SKC 18/09 A2973
Loading
Personal Weather Stations






























Interactive Weather Map
Tropical Storm Tracking
New forecast layout! Learn more

10-Day Weather Forecast

Advertisements
Track Severe Weather on mobile